Concerto — JJ3855 — position and weather

sailwx.info

Track history (hours):
 
Tides and Currents Weather Stations Pressure Air Temp Water Temp Dewpoint Dewpoint Depression Visibility Wind Speed Wind Dir Waves Ship Positions

Concerto

Last reported at 2014-Jul-29 11:33 UTC. Time now 2014-Jul-29 14:47 UTC.
Position N 34°38' E 135°11'.

Length 62 m; draft 3 m.

Type: Passenger vessel. MMSI: 431000448.

Date/timePositionNaut miles runAvg speedWind from/ knotsBaromVisibWave heightAir tempDewpointWater temp
2014-Jul-29 11:33N 34°38' E 135°11'2 1.5
2014-Jul-29 10:33N 34°40' E 135°11'0 0.4
2014-Jul-29 09:33N 34°39' E 135°11'0 0.2
2014-Jul-29 08:33N 34°39' E 135°11'2 1.6
2014-Jul-29 07:24N 34°41' E 135°11'3 4.0
2014-Jul-29 06:33N 34°38' E 135°09'3 3.3
2014-Jul-29 05:33N 34°41' E 135°11'0 0.3
2014-Jul-29 04:33N 34°41' E 135°11'3 3.4
2014-Jul-29 03:33N 34°38' E 135°09'3 3.5
2014-Jul-29 02:33N 34°41' E 135°11'3 0.2
2014-Jul-28 11:33N 34°38' E 135°11'1 1.5
2014-Jul-28 10:33N 34°40' E 135°11'1 0.7
2014-Jul-28 09:33N 34°39' E 135°11'1 0.9
2014-Jul-28 08:33N 34°39' E 135°10'2 2.3
2014-Jul-28 07:33N 34°41' E 135°11'3 3.2
2014-Jul-28 06:33N 34°38' E 135°09'3 3.1
2014-Jul-28 05:33N 34°41' E 135°11'0 0.2
2014-Jul-28 04:33N 34°41' E 135°11'3 3.3
2014-Jul-28 03:33N 34°38' E 135°09'3 3.4
2014-Jul-28 02:33N 34°41' E 135°11'3 0.2
2014-Jul-27 11:33N 34°38' E 135°11'2 1.7
2014-Jul-27 10:33N 34°40' E 135°11'0 0.2
2014-Jul-27 09:33N 34°39' E 135°11'1 1.1
2014-Jul-27 08:33N 34°39' E 135°10'2 2.2
2014-Jul-27 07:29N 34°41' E 135°11'3 3.7
2014-Jul-27 06:34N 34°38' E 135°09'3 3.3
2014-Jul-27 05:32N 34°41' E 135°11'0 0.2
2014-Jul-27 04:33N 34°41' E 135°11'3 3.4
2014-Jul-27 03:33N 34°38' E 135°09'4 3.5
2014-Jul-27 02:33N 34°41' E 135°11'0 0.0
2014-Jul-27 01:33N 34°41' E 135°11'0 0.0
2014-Jul-27 00:33N 34°41' E 135°11'0 0.0
2014-Jul-26 23:33N 34°41' E 135°11'0 0.0
2014-Jul-26 22:33N 34°41' E 135°11'0 0.0
2014-Jul-26 21:32N 34°41' E 135°11'0 0.0
2014-Jul-26 20:33N 34°41' E 135°11'0 0.0
2014-Jul-26 19:33N 34°41' E 135°11'0 0.0
2014-Jul-26 18:33N 34°41' E 135°11'0 0.0
2014-Jul-26 17:33N 34°41' E 135°11'0 0.0
2014-Jul-26 16:33N 34°41' E 135°11'0 0.0
2014-Jul-26 15:33N 34°41' E 135°11'0 0.0
2014-Jul-26 14:33N 34°41' E 135°11'0 0.0
2014-Jul-26 13:33N 34°41' E 135°11'0 0.0
2014-Jul-26 12:33N 34°41' E 135°11'3 2.8
2014-Jul-26 11:33N 34°38' E 135°11'2 2.0
2014-Jul-26 10:33N 34°40' E 135°11'1 0.6
2014-Jul-26 09:33N 34°39' E 135°11'1 0.5
2014-Jul-26 08:33N 34°39' E 135°11'2 1.9
2014-Jul-26 07:30N 34°41' E 135°11'3 3.3
2014-Jul-26 06:33N 34°38' E 135°09'3 3.1
2014-Jul-26 05:33N 34°41' E 135°11'1 0.5
2014-Jul-26 04:33N 34°40' E 135°11'3 2.9
2014-Jul-26 03:33N 34°38' E 135°09'3 3.1
2014-Jul-26 02:33N 34°41' E 135°11'0 0.1
2014-Jul-26 01:33N 34°41' E 135°11'0 0.0
2014-Jul-26 00:33N 34°41' E 135°11'0 0.0
2014-Jul-25 23:33N 34°41' E 135°11'0 0.0
2014-Jul-25 22:33N 34°41' E 135°11'0 0.0
2014-Jul-25 21:33N 34°41' E 135°11'0 0.0
2014-Jul-25 20:33N 34°41' E 135°11'0 0.0
2014-Jul-25 19:33N 34°41' E 135°11'0 0.0
2014-Jul-25 18:33N 34°41' E 135°11'0 0.0
2014-Jul-25 17:33N 34°41' E 135°11'0 0.0
2014-Jul-25 16:33N 34°41' E 135°11'0 0.0
2014-Jul-25 15:33N 34°41' E 135°11'0 0.0
2014-Jul-25 14:33N 34°41' E 135°11'0 0.0
2014-Jul-25 13:33N 34°41' E 135°11'0 0.0
2014-Jul-25 12:33N 34°41' E 135°11'3 2.8
2014-Jul-25 11:33N 34°38' E 135°11'2 1.7
2014-Jul-25 10:33N 34°40' E 135°11'0 0.4
2014-Jul-25 09:33N 34°39' E 135°11'1 0.9
2014-Jul-25 08:33N 34°38' E 135°11'2 2.1
2014-Jul-25 07:27N 34°41' E 135°11'3 3.6
2014-Jul-25 06:33N 34°38' E 135°09'3 3.2
2014-Jul-25 05:33N 34°41' E 135°11'1 0.7
2014-Jul-25 04:33N 34°40' E 135°12'3 3.1
2014-Jul-25 03:33N 34°38' E 135°09'3 3.4
2014-Jul-25 02:32N 34°41' E 135°11'2 0.2
2014-Jul-24 11:33N 34°38' E 135°11'1 1.2
2014-Jul-24 10:33N 34°40' E 135°11'0 0.2
2014-Jul-24 09:33N 34°39' E 135°11'1 1.2
2014-Jul-24 08:33N 34°39' E 135°10'2 2.3
2014-Jul-24 07:33N 34°41' E 135°11'3 3.5
2014-Jul-24 06:33N 34°38' E 135°09'3 3.0
2014-Jul-24 05:24N 34°41' E 135°11'0 0.3
2014-Jul-24 04:33N 34°41' E 135°11'3 2.9
2014-Jul-24 03:33N 34°38' E 135°09'1 0.1
2014-Jul-23 11:33N 34°38' E 135°11'2 1.7
2014-Jul-23 10:33N 34°40' E 135°11'0 0.4
2014-Jul-23 09:33N 34°39' E 135°11'1 0.9
2014-Jul-23 08:33N 34°39' E 135°11'2 1.9
2014-Jul-23 07:23N 34°41' E 135°11'3 3.9
2014-Jul-23 06:33N 34°38' E 135°09'3 3.1
2014-Jul-23 05:30N 34°41' E 135°11'0 0.3
2014-Jul-23 04:33N 34°41' E 135°11'3 3.1
2014-Jul-23 03:33N 34°38' E 135°09'3 3.2
2014-Jul-23 02:33N 34°41' E 135°11'3 0.2
2014-Jul-22 11:33N 34°38' E 135°11'2 1.7
2014-Jul-22 10:33N 34°40' E 135°11'0 0.4
2014-Jul-22 09:33N 34°39' E 135°11'1 1.0
2014-Jul-22 08:33N 34°39' E 135°11'2 2.2
2014-Jul-22 07:30N 34°41' E 135°11'3 3.6
2014-Jul-22 06:33N 34°38' E 135°09'3 3.4
2014-Jul-22 05:33N 34°41' E 135°11'0 0.3
2014-Jul-22 04:33N 34°41' E 135°11'3 3.3
2014-Jul-22 03:33N 34°38' E 135°09'1 0.1
2014-Jul-21 11:33N 34°38' E 135°10'2 2.3
2014-Jul-21 10:32N 34°40' E 135°11'1 0.6
2014-Jul-21 09:33N 34°39' E 135°11'1 1.0
2014-Jul-21 08:33N 34°39' E 135°11'2 1.9
2014-Jul-21 07:22N 34°41' E 135°11'4 4.3
2014-Jul-21 06:33N 34°38' E 135°09'4 3.3
2014-Jul-21 05:28N 34°41' E 135°11'0 0.4
2014-Jul-21 04:33N 34°40' E 135°11'3 3.3
2014-Jul-21 03:33N 34°38' E 135°09'3 3.5
2014-Jul-21 02:33N 34°41' E 135°11'3 0.2
2014-Jul-20 11:33N 34°38' E 135°11'2 1.9
2014-Jul-20 10:33N 34°40' E 135°11'1 0.8
2014-Jul-20 09:34N 34°39' E 135°11'0 0.3
2014-Jul-20 08:33N 34°39' E 135°11'2 1.9
2014-Jul-20 07:32N 34°41' E 135°11'3 3.2
2014-Jul-20 06:33N 34°38' E 135°09'3 3.1
2014-Jul-20 05:33N 34°41' E 135°11'0 0.3
2014-Jul-20 04:33N 34°41' E 135°11'3 3.1
2014-Jul-20 03:33N 34°38' E 135°09'3 3.2
2014-Jul-20 02:33N 34°41' E 135°11'  
Track history (hours):
 
Tides and Currents Weather Stations Pressure Air Temp Water Temp Dewpoint Dewpoint Depression Visibility Wind Speed Wind Dir Waves Ship Positions

Concerto

Last reported at 2014-Jul-29 11:33 UTC. Time now 2014-Jul-29 14:47 UTC.
Position N 34°38' E 135°11'.

Length 62 m; draft 3 m.

Type: Passenger vessel. MMSI: 431000448.

Date/timePositionNaut miles runAvg speedWind from/ knotsBaromVisibWave heightAir tempDewpointWater temp
2014-Jul-29 11:33N 34°38' E 135°11'2 1.5
2014-Jul-29 10:33N 34°40' E 135°11'0 0.4
2014-Jul-29 09:33N 34°39' E 135°11'0 0.2
2014-Jul-29 08:33N 34°39' E 135°11'2 1.6
2014-Jul-29 07:24N 34°41' E 135°11'3 4.0
2014-Jul-29 06:33N 34°38' E 135°09'3 3.3
2014-Jul-29 05:33N 34°41' E 135°11'0 0.3
2014-Jul-29 04:33N 34°41' E 135°11'3 3.4
2014-Jul-29 03:33N 34°38' E 135°09'3 3.5
2014-Jul-29 02:33N 34°41' E 135°11'3 0.2
2014-Jul-28 11:33N 34°38' E 135°11'1 1.5
2014-Jul-28 10:33N 34°40' E 135°11'1 0.7
2014-Jul-28 09:33N 34°39' E 135°11'1 0.9
2014-Jul-28 08:33N 34°39' E 135°10'2 2.3
2014-Jul-28 07:33N 34°41' E 135°11'3 3.2
2014-Jul-28 06:33N 34°38' E 135°09'3 3.1
2014-Jul-28 05:33N 34°41' E 135°11'0 0.2
2014-Jul-28 04:33N 34°41' E 135°11'3 3.3
2014-Jul-28 03:33N 34°38' E 135°09'3 3.4
2014-Jul-28 02:33N 34°41' E 135°11'3 0.2
2014-Jul-27 11:33N 34°38' E 135°11'2 1.7
2014-Jul-27 10:33N 34°40' E 135°11'0 0.2
2014-Jul-27 09:33N 34°39' E 135°11'1 1.1
2014-Jul-27 08:33N 34°39' E 135°10'2 2.2
2014-Jul-27 07:29N 34°41' E 135°11'3 3.7
2014-Jul-27 06:34N 34°38' E 135°09'3 3.3
2014-Jul-27 05:32N 34°41' E 135°11'0 0.2
2014-Jul-27 04:33N 34°41' E 135°11'3 3.4
2014-Jul-27 03:33N 34°38' E 135°09'4 3.5
2014-Jul-27 02:33N 34°41' E 135°11'0 0.0
2014-Jul-27 01:33N 34°41' E 135°11'0 0.0
2014-Jul-27 00:33N 34°41' E 135°11'0 0.0
2014-Jul-26 23:33N 34°41' E 135°11'0 0.0
2014-Jul-26 22:33N 34°41' E 135°11'0 0.0
2014-Jul-26 21:32N 34°41' E 135°11'0 0.0
2014-Jul-26 20:33N 34°41' E 135°11'0 0.0
2014-Jul-26 19:33N 34°41' E 135°11'0 0.0
2014-Jul-26 18:33N 34°41' E 135°11'0 0.0
2014-Jul-26 17:33N 34°41' E 135°11'0 0.0
2014-Jul-26 16:33N 34°41' E 135°11'0 0.0
2014-Jul-26 15:33N 34°41' E 135°11'0 0.0
2014-Jul-26 14:33N 34°41' E 135°11'0 0.0
2014-Jul-26 13:33N 34°41' E 135°11'0 0.0
2014-Jul-26 12:33N 34°41' E 135°11'3 2.8
2014-Jul-26 11:33N 34°38' E 135°11'2 2.0
2014-Jul-26 10:33N 34°40' E 135°11'1 0.6
2014-Jul-26 09:33N 34°39' E 135°11'1 0.5
2014-Jul-26 08:33N 34°39' E 135°11'2 1.9
2014-Jul-26 07:30N 34°41' E 135°11'3 3.3
2014-Jul-26 06:33N 34°38' E 135°09'3 3.1
2014-Jul-26 05:33N 34°41' E 135°11'1 0.5
2014-Jul-26 04:33N 34°40' E 135°11'3 2.9
2014-Jul-26 03:33N 34°38' E 135°09'3 3.1
2014-Jul-26 02:33N 34°41' E 135°11'0 0.1
2014-Jul-26 01:33N 34°41' E 135°11'0 0.0
2014-Jul-26 00:33N 34°41' E 135°11'0 0.0
2014-Jul-25 23:33N 34°41' E 135°11'0 0.0
2014-Jul-25 22:33N 34°41' E 135°11'0 0.0
2014-Jul-25 21:33N 34°41' E 135°11'0 0.0
2014-Jul-25 20:33N 34°41' E 135°11'0 0.0
2014-Jul-25 19:33N 34°41' E 135°11'0 0.0
2014-Jul-25 18:33N 34°41' E 135°11'0 0.0
2014-Jul-25 17:33N 34°41' E 135°11'0 0.0
2014-Jul-25 16:33N 34°41' E 135°11'0 0.0
2014-Jul-25 15:33N 34°41' E 135°11'0 0.0
2014-Jul-25 14:33N 34°41' E 135°11'0 0.0
2014-Jul-25 13:33N 34°41' E 135°11'0 0.0
2014-Jul-25 12:33N 34°41' E 135°11'3 2.8
2014-Jul-25 11:33N 34°38' E 135°11'2 1.7
2014-Jul-25 10:33N 34°40' E 135°11'0 0.4
2014-Jul-25 09:33N 34°39' E 135°11'1 0.9
2014-Jul-25 08:33N 34°38' E 135°11'2 2.1
2014-Jul-25 07:27N 34°41' E 135°11'3 3.6
2014-Jul-25 06:33N 34°38' E 135°09'3 3.2
2014-Jul-25 05:33N 34°41' E 135°11'1 0.7
2014-Jul-25 04:33N 34°40' E 135°12'3 3.1
2014-Jul-25 03:33N 34°38' E 135°09'3 3.4
2014-Jul-25 02:32N 34°41' E 135°11'2 0.2
2014-Jul-24 11:33N 34°38' E 135°11'1 1.2
2014-Jul-24 10:33N 34°40' E 135°11'0 0.2
2014-Jul-24 09:33N 34°39' E 135°11'1 1.2
2014-Jul-24 08:33N 34°39' E 135°10'2 2.3
2014-Jul-24 07:33N 34°41' E 135°11'3 3.5
2014-Jul-24 06:33N 34°38' E 135°09'3 3.0
2014-Jul-24 05:24N 34°41' E 135°11'0 0.3
2014-Jul-24 04:33N 34°41' E 135°11'3 2.9
2014-Jul-24 03:33N 34°38' E 135°09'1 0.1
2014-Jul-23 11:33N 34°38' E 135°11'2 1.7
2014-Jul-23 10:33N 34°40' E 135°11'0 0.4
2014-Jul-23 09:33N 34°39' E 135°11'1 0.9
2014-Jul-23 08:33N 34°39' E 135°11'2 1.9
2014-Jul-23 07:23N 34°41' E 135°11'3 3.9
2014-Jul-23 06:33N 34°38' E 135°09'3 3.1
2014-Jul-23 05:30N 34°41' E 135°11'0 0.3
2014-Jul-23 04:33N 34°41' E 135°11'3 3.1
2014-Jul-23 03:33N 34°38' E 135°09'3 3.2
2014-Jul-23 02:33N 34°41' E 135°11'3 0.2
2014-Jul-22 11:33N 34°38' E 135°11'2 1.7
2014-Jul-22 10:33N 34°40' E 135°11'0 0.4
2014-Jul-22 09:33N 34°39' E 135°11'1 1.0
2014-Jul-22 08:33N 34°39' E 135°11'2 2.2
2014-Jul-22 07:30N 34°41' E 135°11'3 3.6
2014-Jul-22 06:33N 34°38' E 135°09'3 3.4
2014-Jul-22 05:33N 34°41' E 135°11'0 0.3
2014-Jul-22 04:33N 34°41' E 135°11'3 3.3
2014-Jul-22 03:33N 34°38' E 135°09'1 0.1
2014-Jul-21 11:33N 34°38' E 135°10'2 2.3
2014-Jul-21 10:32N 34°40' E 135°11'1 0.6
2014-Jul-21 09:33N 34°39' E 135°11'1 1.0
2014-Jul-21 08:33N 34°39' E 135°11'2 1.9
2014-Jul-21 07:22N 34°41' E 135°11'4 4.3
2014-Jul-21 06:33N 34°38' E 135°09'4 3.3
2014-Jul-21 05:28N 34°41' E 135°11'0 0.4
2014-Jul-21 04:33N 34°40' E 135°11'3 3.3
2014-Jul-21 03:33N 34°38' E 135°09'3 3.5
2014-Jul-21 02:33N 34°41' E 135°11'3 0.2
2014-Jul-20 11:33N 34°38' E 135°11'2 1.9
2014-Jul-20 10:33N 34°40' E 135°11'1 0.8
2014-Jul-20 09:34N 34°39' E 135°11'0 0.3
2014-Jul-20 08:33N 34°39' E 135°11'2 1.9
2014-Jul-20 07:32N 34°41' E 135°11'3 3.2
2014-Jul-20 06:33N 34°38' E 135°09'3 3.1
2014-Jul-20 05:33N 34°41' E 135°11'0 0.3
2014-Jul-20 04:33N 34°41' E 135°11'3 3.1
2014-Jul-20 03:33N 34°38' E 135°09'3 3.2
2014-Jul-20 02:33N 34°41' E 135°11'  

Dump ship's entire track history